Time;durP1;ratioP1;P1;durP2;ratioP2;P2;SDS_P1;SDS_P2;PMS_P1;PMS_P2;Temp;Humidity;BMP_temperature;BMP_pressure;BME280_temperature;BME280_humidity;BME280_pressure;Samples;Min_cycle;Max_cycle;Signal;HPM_P1;HPM_P2
2023/12/28 00:03:02;;;;;;;8.90;6.33;;;;;;;10.18;39.72;99657.72;10354319;28;20229;-43
2023/12/28 00:08:04;;;;;;;8.40;6.63;;;;;;;9.18;40.61;99819.78;10351951;28;20636;-43
2023/12/28 00:13:05;;;;;;;8.13;6.93;;;;;;;8.47;41.30;99838.34;10358590;28;20264;-43
2023/12/28 00:18:07;;;;;;;8.77;6.23;;;;;;;8.88;41.37;99706.72;10360065;28;20776;-42
2023/12/28 00:23:09;;;;;;;6.77;5.67;;;;;;;11.84;37.10;99744.44;10360545;28;20275;-43
2023/12/28 00:28:11;;;;;;;6.73;6.03;;;;;;;10.65;38.81;99774.22;10359658;28;20249;-43
2023/12/28 00:33:13;;;;;;;8.60;6.23;;;;;;;11.56;36.85;99768.50;10357004;28;20691;-42
2023/12/28 00:38:14;;;;;;;7.60;6.60;;;;;;;11.21;37.56;99837.97;10362371;28;20228;-43
2023/12/28 00:43:16;;;;;;;7.33;5.77;;;;;;;10.30;38.90;99773.91;10354773;28;20245;-43
2023/12/28 00:48:18;;;;;;;5.83;5.23;;;;;;;10.17;38.68;99771.03;10360207;28;20405;-43
2023/12/28 00:53:20;;;;;;;7.33;5.23;;;;;;;8.77;40.20;99859.97;10355491;28;20257;-43
2023/12/28 00:58:22;;;;;;;6.03;5.43;;;;;;;10.32;38.38;99833.41;10359402;28;20628;-43
2023/12/28 01:03:23;;;;;;;5.20;4.40;;;;;;;10.13;37.42;99907.78;10357568;28;20266;-43
2023/12/28 01:08:25;;;;;;;6.10;4.70;;;;;;;11.00;37.27;99839.56;10358316;28;20695;-43
2023/12/28 01:13:28;;;;;;;5.67;4.20;;;;;;;10.26;37.57;99893.81;10354379;28;20386;-42
2023/12/28 01:18:30;;;;;;;6.73;4.80;;;;;;;10.79;37.17;99871.59;10351672;28;20237;-43
2023/12/28 01:23:32;;;;;;;5.03;4.53;;;;;;;11.16;36.66;99825.16;10362503;28;20245;-43
2023/12/28 01:28:34;;;;;;;4.73;4.27;;;;;;;11.36;36.53;99889.69;10357751;28;20307;-43
2023/12/28 01:33:36;;;;;;;5.20;3.87;;;;;;;10.60;36.62;99996.88;10357001;28;20630;-43
2023/12/28 01:38:37;;;;;;;3.67;3.37;;;;;;;10.40;36.88;99876.13;10356974;28;20317;-43
2023/12/28 01:43:39;;;;;;;3.73;3.33;;;;;;;10.18;36.96;99955.38;10357791;28;20237;-42
2023/12/28 01:48:44;;;;;;;4.10;3.70;;;;;;;11.52;36.08;99869.03;10354992;28;20244;-43
2023/12/28 01:53:49;;;;;;;5.30;3.57;;;;;;;11.58;36.04;99854.91;10360571;28;20241;-43
2023/12/28 01:58:52;;;;;;;3.33;3.03;;;;;;;9.39;37.98;99904.66;10356648;28;20221;-43
2023/12/28 02:03:55;;;;;;;3.73;3.33;;;;;;;9.50;37.48;99933.69;10353009;28;20225;-43
2023/12/28 02:08:57;;;;;;;3.63;3.33;;;;;;;10.24;37.12;99862.88;10356316;28;20204;-43
2023/12/28 02:13:59;;;;;;;3.50;3.20;;;;;;;8.93;37.83;99965.88;10356034;28;20228;-43
2023/12/28 02:19:17;;;;;;;3.87;3.57;;;;;;;10.69;36.82;99829.84;10358056;28;20245;-43
2023/12/28 02:24:19;;;;;;;4.87;3.63;;;;;;;9.26;38.79;99810.94;10357573;28;20407;-43
2023/12/28 02:29:21;;;;;;;3.67;3.30;;;;;;;9.87;37.46;99803.88;10355749;28;20233;-43
2023/12/28 02:34:29;;;;;;;3.00;2.70;;;;;;;10.17;36.85;99832.53;10355478;28;20243;-42
2023/12/28 02:39:32;;;;;;;4.30;2.90;;;;;;;11.29;36.67;99741.44;10355960;28;20300;-43
2023/12/28 02:44:34;;;;;;;3.17;2.90;;;;;;;10.52;37.18;99788.22;10357959;28;20233;-43
2023/12/28 02:49:35;;;;;;;3.10;2.70;;;;;;;10.50;37.08;99796.44;10354492;28;20320;-44
2023/12/28 02:54:37;;;;;;;3.80;2.97;;;;;;;11.63;34.71;100018.69;10356884;28;20651;-44
2023/12/28 02:59:39;;;;;;;2.80;2.60;;;;;;;12.02;35.32;99883.44;10357019;28;20256;-44
2023/12/28 03:04:41;;;;;;;3.20;2.97;;;;;;;12.08;36.03;99896.09;10353277;28;20241;-41
2023/12/28 03:09:42;;;;;;;3.47;2.70;;;;;;;11.03;36.71;99911.47;10354645;28;20320;-43
2023/12/28 03:14:44;;;;;;;3.20;3.00;;;;;;;10.78;36.60;99920.78;10356160;28;20229;-43
2023/12/28 03:19:46;;;;;;;2.90;2.60;;;;;;;12.26;36.20;99820.47;10354568;28;20245;-44
2023/12/28 03:24:49;;;;;;;3.00;2.70;;;;;;;11.54;36.02;99913.41;10350341;28;20280;-43
2023/12/28 03:29:51;;;;;;;3.73;2.87;;;;;;;11.92;35.83;99953.47;10354538;28;20237;-43
2023/12/28 03:34:52;;;;;;;3.27;2.97;;;;;;;12.04;36.20;99961.84;10355751;28;20646;-43
2023/12/28 03:39:54;;;;;;;3.33;2.90;;;;;;;12.79;36.49;99852.28;10355669;28;20241;-43
2023/12/28 03:44:56;;;;;;;3.40;3.10;;;;;;;11.56;37.39;99958.78;10355222;28;20599;-43
2023/12/28 03:49:58;;;;;;;4.93;3.90;;;;;;;12.39;37.26;99849.28;10361154;28;20325;-42
2023/12/28 03:55:00;;;;;;;4.83;3.70;;;;;;;12.82;37.14;99833.09;10343466;28;20240;-43
2023/12/28 04:00:03;;;;;;;3.27;3.00;;;;;;;11.43;39.08;99903.16;10370055;28;20233;-43
2023/12/28 04:05:05;;;;;;;4.40;3.73;;;;;;;13.61;37.25;99845.19;10360123;28;20229;-42
2023/12/28 04:10:07;;;;;;;3.93;3.63;;;;;;;13.93;36.57;99817.75;10361084;28;20229;-43
2023/12/28 04:15:09;;;;;;;3.93;3.60;;;;;;;14.90;35.53;99923.19;10359079;28;20322;-44
2023/12/28 04:20:11;;;;;;;5.13;3.50;;;;;;;12.99;37.10;99988.53;10360713;28;20237;-43
2023/12/28 04:25:13;;;;;;;4.13;3.40;;;;;;;13.33;37.16;99903.59;10361219;28;20239;-43
2023/12/28 04:30:15;;;;;;;3.33;2.77;;;;;;;11.47;39.36;99950.00;10359124;28;20210;-43
2023/12/28 04:35:17;;;;;;;3.63;2.97;;;;;;;11.12;40.47;99973.00;10359761;28;20606;-43
2023/12/28 04:40:19;;;;;;;4.17;3.33;;;;;;;11.30;41.84;99913.72;10362461;28;20737;-44
2023/12/28 04:45:22;;;;;;;4.10;2.87;;;;;;;11.38;42.31;99819.84;10360550;28;20310;-43
2023/12/28 04:50:24;;;;;;;3.07;2.77;;;;;;;11.94;41.71;99840.66;10356151;28;20336;-44
2023/12/28 04:55:26;;;;;;;3.30;3.00;;;;;;;12.08;42.32;99786.13;10360776;28;20241;-44
2023/12/28 05:05:12;;;;;;;4.53;3.87;;;;;;;10.07;45.61;99629.59;10421619;28;20848;-75
2023/12/28 05:10:14;;;;;;;4.17;3.30;;;;;;;10.37;43.92;99686.56;10388167;28;20233;-76
2023/12/28 05:15:18;;;;;;;4.10;2.70;;;;;;;9.70;43.95;99739.03;10394874;28;20250;-76
2023/12/28 05:20:19;;;;;;;3.10;2.80;;;;;;;10.79;42.09;99708.34;10395507;28;20240;-77
2023/12/28 05:25:21;;;;;;;3.97;2.90;;;;;;;9.89;43.06;99806.38;10398922;28;20318;-75
2023/12/28 05:30:23;;;;;;;3.50;2.67;;;;;;;11.07;41.36;99717.31;10395722;28;20275;-76
2023/12/28 05:35:25;;;;;;;3.43;3.13;;;;;;;10.24;42.16;99737.19;10392286;28;21113;-76
2023/12/28 05:40:26;;;;;;;3.10;2.80;;;;;;;11.13;41.28;99722.91;10392434;28;20244;-75
2023/12/28 05:45:28;;;;;;;3.30;2.90;;;;;;;11.09;40.96;99740.41;10384999;28;20322;-76
2023/12/28 05:50:30;;;;;;;3.27;2.97;;;;;;;10.64;41.48;99805.47;10395527;28;20251;-76
2023/12/28 05:55:32;;;;;;;3.97;2.80;;;;;;;11.59;40.34;99765.41;10402074;28;20276;-75
2023/12/28 06:00:34;;;;;;;3.40;3.10;;;;;;;11.25;40.67;99839.25;10395184;28;21182;-75
2023/12/28 06:05:36;;;;;;;3.10;2.80;;;;;;;11.03;41.58;99831.16;10399190;28;20259;-75
2023/12/28 06:10:37;;;;;;;11.83;7.90;;;;;;;11.93;40.86;99772.78;10402391;28;20629;-75
2023/12/28 06:15:39;;;;;;;3.40;2.90;;;;;;;11.87;41.52;99805.72;10369599;28;20257;-75
2023/12/28 06:20:41;;;;;;;4.03;2.93;;;;;;;11.13;43.04;99833.53;10356423;28;20244;-76
2023/12/28 06:25:43;;;;;;;3.90;2.93;;;;;;;11.19;42.93;99837.34;10370953;28;20899;-76
2023/12/28 06:30:44;;;;;;;3.50;3.20;;;;;;;11.07;42.42;99894.03;10362876;28;20244;-76
2023/12/28 06:35:46;;;;;;;3.87;2.90;;;;;;;10.97;43.30;99849.84;10371417;28;20224;-76
2023/12/28 06:40:48;;;;;;;3.70;3.20;;;;;;;12.10;42.31;99751.88;10370969;28;20355;-77
2023/12/28 06:45:51;;;;;;;5.40;2.80;;;;;;;11.94;42.46;99854.06;10364625;28;20640;-77
2023/12/28 06:50:53;;;;;;;3.77;3.10;;;;;;;11.89;43.31;99869.88;10361344;28;20307;-76
2023/12/28 06:55:55;;;;;;;3.20;2.90;;;;;;;12.98;42.69;99788.94;10369300;28;20479;-76
2023/12/28 07:00:57;;;;;;;3.77;3.47;;;;;;;12.02;43.67;99907.56;10360179;28;20268;-75
2023/12/28 07:05:59;;;;;;;3.40;3.10;;;;;;;12.70;43.93;99827.44;10360385;28;20786;-76
2023/12/28 07:11:02;;;;;;;2.70;2.50;;;;;;;12.53;44.49;99794.69;10375012;28;20721;-76
2023/12/28 07:16:04;;;;;;;3.67;3.03;;;;;;;11.54;46.77;99792.81;10363999;28;20225;-76
2023/12/28 07:21:09;;;;;;;6.80;4.00;;;;;;;11.67;46.27;99837.69;10359824;28;20229;-77
2023/12/28 07:26:11;;;;;;;4.00;3.63;;;;;;;10.64;48.46;99899.13;10361762;28;20241;-75
2023/12/28 07:31:25;;;;;;;4.43;4.03;;;;;;;12.54;46.25;99745.38;10356915;28;20748;-75
2023/12/28 07:36:27;;;;;;;6.30;3.50;;;;;;;12.00;46.18;99874.75;10394703;22;20243;-36
2023/12/28 07:41:29;;;;;;;5.10;3.40;;;;;;;11.57;47.43;99869.31;10397160;28;20777;-36
2023/12/28 07:46:30;;;;;;;3.27;2.97;;;;;;;11.50;48.68;99829.03;10395815;28;20236;-36
2023/12/28 07:51:32;;;;;;;4.50;3.30;;;;;;;12.07;47.22;99762.16;10380990;28;20225;-36
2023/12/28 07:56:34;;;;;;;3.83;2.80;;;;;;;11.17;48.21;99853.59;10392518;28;20236;-36
2023/12/28 08:01:36;;;;;;;3.47;2.83;;;;;;;11.13;48.27;99768.44;10391351;28;20240;-36
2023/12/28 08:06:37;;;;;;;3.10;2.90;;;;;;;10.16;49.78;99796.97;10398028;28;20240;-36
2023/12/28 08:11:39;;;;;;;4.47;3.60;;;;;;;11.60;47.70;99746.47;10396142;28;20232;-36
2023/12/28 08:16:41;;;;;;;3.50;3.20;;;;;;;12.96;44.05;99849.25;10398924;28;20240;-36
2023/12/28 08:21:43;;;;;;;2.63;2.43;;;;;;;11.37;46.50;99752.03;10395963;28;20240;-36
2023/12/28 08:26:45;;;;;;;3.30;3.00;;;;;;;10.14;46.78;99871.16;10390861;28;20244;-36
2023/12/28 08:31:46;;;;;;;5.10;2.87;;;;;;;10.74;44.86;99916.81;10394136;28;20573;-36
2023/12/28 08:36:49;;;;;;;5.00;3.10;;;;;;;12.13;44.57;99801.59;10393481;28;20302;-36
2023/12/28 08:41:51;;;;;;;4.00;2.90;;;;;;;10.32;45.59;99943.06;10392754;28;20242;-36
2023/12/28 08:46:52;;;;;;;3.87;2.90;;;;;;;9.89;46.78;99898.09;10394504;28;20228;-36
2023/12/28 08:51:54;;;;;;;3.10;2.80;;;;;;;10.63;45.36;99977.78;10392793;28;20216;-36
2023/12/28 08:56:57;;;;;;;4.20;2.60;;;;;;;10.35;46.17;99950.75;10382197;28;20244;-36
2023/12/28 09:02:01;;;;;;;3.30;3.00;;;;;;;11.93;43.72;99943.56;10390706;28;20232;-36
2023/12/28 09:07:03;;;;;;;2.90;2.70;;;;;;;11.51;44.61;99947.78;10373175;28;20233;-36
2023/12/28 09:12:05;;;;;;;3.57;3.00;;;;;;;11.01;46.02;99940.28;10390692;28;20224;-36
2023/12/28 09:17:07;;;;;;;3.90;2.70;;;;;;;9.55;48.42;99951.84;10377133;28;20260;-36
2023/12/28 09:22:08;;;;;;;3.77;2.77;;;;;;;10.99;46.59;99901.34;10390559;28;20233;-36
2023/12/28 09:27:10;;;;;;;4.00;2.83;;;;;;;10.63;46.50;99880.59;10396916;28;20283;-36
2023/12/28 09:32:12;;;;;;;3.03;2.73;;;;;;;10.58;45.66;99956.09;10390827;28;20439;-36
2023/12/28 09:37:14;;;;;;;4.00;3.17;;;;;;;10.73;45.68;99886.53;10395827;28;20259;-36
2023/12/28 09:42:43;;;;;;;3.40;3.10;;;;;;;12.76;42.82;99866.09;10393576;28;20302;-36
2023/12/28 09:47:48;;;;;;;4.23;3.20;;;;;;;11.24;43.44;100065.28;10389485;28;20328;-36
2023/12/28 09:52:50;;;;;;;3.30;3.00;;;;;;;12.62;42.27;100028.09;10399521;28;20236;-36
2023/12/28 09:57:52;;;;;;;5.20;3.10;;;;;;;12.60;42.42;100006.81;10398663;28;20236;-36
2023/12/28 10:02:54;;;;;;;5.40;3.83;;;;;;;13.09;41.98;99981.81;10401969;28;20589;-36
2023/12/28 10:07:57;;;;;;;5.10;3.00;;;;;;;11.52;44.31;100027.16;10396971;28;20328;-36
2023/12/28 10:12:59;;;;;;;4.57;3.33;;;;;;;12.78;43.88;99892.75;10402149;28;20232;-36
2023/12/28 10:18:02;;;;;;;3.33;3.13;;;;;;;12.42;43.42;99996.50;10401280;28;20240;-36
2023/12/28 10:23:04;;;;;;;3.90;3.33;;;;;;;10.13;48.57;99933.69;10400016;28;20233;-36
2023/12/28 10:28:06;;;;;;;4.60;3.53;;;;;;;10.61;47.52;100033.31;10400338;28;20252;-36
2023/12/28 10:33:08;;;;;;;4.30;3.80;;;;;;;12.33;45.61;99901.03;10399099;28;20244;-36
2023/12/28 10:38:16;;;;;;;3.20;2.90;;;;;;;10.13;49.50;99979.97;10401748;28;20322;-36
2023/12/28 10:43:19;;;;;;;2.90;2.60;;;;;;;9.50;50.55;100005.81;10397269;28;20691;-36
2023/12/28 10:48:35;;;;;;;4.83;3.40;;;;;;;10.27;50.53;99851.84;10398470;28;20710;-36
2023/12/28 10:53:41;;;;;;;4.07;3.40;;;;;;;13.04;46.38;99830.28;10395539;28;20323;-36
2023/12/28 10:58:58;;;;;;;3.60;3.30;;;;;;;13.29;45.71;99916.63;10400088;28;20232;-37
2023/12/28 11:06:17;;;;;;;3.27;2.97;;;;;;;10.41;52.60;99786.84;10525289;27;20375;-78
2023/12/28 11:11:23;;;;;;;3.73;3.23;;;;;;;10.62;52.68;99806.69;10487750;28;20230;-79
2023/12/28 11:16:25;;;;;;;3.37;3.07;;;;;;;10.71;52.17;99904.59;10486271;28;20231;-72
2023/12/28 11:21:28;;;;;;;3.60;3.30;;;;;;;11.91;50.84;99764.13;10487556;28;20262;-69
2023/12/28 11:26:31;;;;;;;3.30;3.00;;;;;;;9.86;53.25;99972.44;10559140;28;20233;-76
2023/12/28 11:31:36;;;;;;;3.50;2.83;;;;;;;9.37;55.37;99914.69;10547498;28;20226;-72
2023/12/28 11:36:48;;;;;;;8.33;3.47;;;;;;;10.71;52.88;99869.81;10555179;28;20785;-71
2023/12/28 11:41:50;;;;;;;4.50;3.57;;;;;;;12.41;49.68;99795.41;10561447;28;20345;-75
2023/12/28 11:46:52;;;;;;;3.80;3.07;;;;;;;12.24;49.34;99856.59;10558338;28;20230;-76
2023/12/28 11:51:57;;;;;;;3.50;3.20;;;;;;;13.18;46.91;99918.00;10563598;28;20595;-76
2023/12/28 11:56:59;;;;;;;3.60;3.30;;;;;;;11.59;50.50;99889.56;10556388;28;20236;-77
2023/12/28 12:02:02;;;;;;;3.70;3.40;;;;;;;12.14;49.63;99814.00;10550464;28;20238;-77
2023/12/28 12:07:04;;;;;;;4.53;3.27;;;;;;;12.30;48.87;99890.69;10514927;28;20765;-75
2023/12/28 12:12:07;;;;;;;3.70;3.40;;;;;;;11.98;48.89;99954.56;10506210;28;20229;-75
2023/12/28 12:17:12;;;;;;;3.63;3.10;;;;;;;13.03;48.13;99842.06;10489560;28;20334;-75
2023/12/28 12:22:13;;;;;;;3.47;3.10;;;;;;;11.97;49.55;99853.69;10466548;28;20318;-74
2023/12/28 12:27:15;;;;;;;3.40;3.07;;;;;;;11.32;50.39;99906.31;10484725;28;20256;-73
2023/12/28 12:32:17;;;;;;;4.23;2.83;;;;;;;11.04;51.59;99866.81;10485267;28;20220;-74
2023/12/28 12:37:18;;;;;;;3.60;3.30;;;;;;;12.12;48.73;99928.72;10482909;28;20230;-72
2023/12/28 12:42:20;;;;;;;2.97;2.77;;;;;;;12.44;48.49;99919.31;10485729;28;20319;-73
2023/12/28 12:47:22;;;;;;;3.17;2.97;;;;;;;13.25;47.45;99848.97;10480956;28;20227;-75
2023/12/28 12:52:25;;;;;;;3.63;3.33;;;;;;;12.31;48.68;99936.09;10480954;28;20231;-73
2023/12/28 12:57:27;;;;;;;2.83;2.53;;;;;;;10.94;50.85;100017.03;10490018;28;20627;-73
2023/12/28 13:02:29;;;;;;;4.27;3.30;;;;;;;10.43;51.67;99989.97;10496092;28;20239;-73
2023/12/28 13:07:33;;;;;;;3.33;3.03;;;;;;;12.22;48.55;99894.34;10512189;28;20262;-75
2023/12/28 13:12:35;;;;;;;4.17;3.03;;;;;;;13.35;46.56;99974.13;10533705;28;20664;-75
2023/12/28 13:17:37;;;;;;;4.77;3.47;;;;;;;12.50;47.53;99926.63;10505811;28;21130;-76
2023/12/28 13:22:38;;;;;;;4.77;3.40;;;;;;;11.63;48.93;100010.66;10532928;28;20226;-75
2023/12/28 13:27:40;;;;;;;4.87;4.03;;;;;;;10.59;51.97;99962.25;10532931;28;20256;-76
2023/12/28 13:32:42;;;;;;;4.67;3.73;;;;;;;10.45;53.10;99913.03;10541572;28;20226;-75
2023/12/28 13:37:44;;;;;;;5.53;4.17;;;;;;;9.86;52.81;100000.00;10566760;22;20660;-36
2023/12/28 13:42:46;;;;;;;5.60;4.23;;;;;;;10.50;52.07;99990.94;10559365;28;20771;-36
2023/12/28 13:47:48;;;;;;;4.70;4.20;;;;;;;9.55;55.01;99855.66;10508358;28;20231;-41
2023/12/28 13:52:50;;;;;;;4.43;4.03;;;;;;;10.71;52.75;99816.28;10514575;28;20713;-42
2023/12/28 13:57:51;;;;;;;4.10;3.70;;;;;;;10.61;51.96;99950.34;10503686;28;20234;-41
2023/12/28 14:02:53;;;;;;;4.53;3.57;;;;;;;10.59;53.59;99757.03;10503728;28;20399;-40
2023/12/28 14:07:55;;;;;;;4.97;3.70;;;;;;;10.20;53.35;99897.19;10508858;28;20230;-43
2023/12/28 14:12:57;;;;;;;4.13;3.73;;;;;;;10.32;53.18;99892.25;10509859;28;20857;-43
2023/12/28 14:17:59;;;;;;;7.70;6.10;;;;;;;10.93;53.68;99712.00;10501945;28;20312;-42
2023/12/28 14:23:01;;;;;;;5.97;5.37;;;;;;;10.11;54.19;99792.16;10510813;28;20233;-42
2023/12/28 14:28:06;;;;;;;5.10;4.27;;;;;;;11.29;50.84;99922.75;10506648;28;20755;-42
2023/12/28 14:33:08;;;;;;;4.20;3.80;;;;;;;9.67;53.25;99962.97;10517609;28;20230;-43
2023/12/28 14:38:10;;;;;;;8.20;4.40;;;;;;;12.50;49.90;99772.78;10496569;28;20348;-42
2023/12/28 14:43:12;;;;;;;6.20;3.90;;;;;;;11.54;51.23;99803.53;10511595;28;20238;-42
2023/12/28 14:48:14;;;;;;;5.73;4.33;;;;;;;10.84;51.96;99872.72;10509859;28;20230;-42
2023/12/28 14:53:16;;;;;;;4.20;3.80;;;;;;;13.01;48.88;99801.97;10507610;28;20234;-42
2023/12/28 14:58:22;;;;;;;5.90;4.90;;;;;;;14.78;44.37;99928.34;10502977;28;20227;-42
2023/12/28 15:03:23;;;;;;;4.53;3.97;;;;;;;13.83;46.86;99869.25;10519722;28;20230;-43
2023/12/28 15:08:25;;;;;;;5.40;4.63;;;;;;;12.72;48.86;99854.06;10515888;28;20287;-43
2023/12/28 15:13:27;;;;;;;4.50;4.10;;;;;;;12.45;48.56;99874.50;10518823;28;20727;-44
2023/12/28 15:18:30;;;;;;;7.67;4.80;;;;;;;13.48;45.80;99998.41;10519786;28;20242;-42
2023/12/28 15:23:32;;;;;;;5.37;4.20;;;;;;;13.50;46.67;99877.22;10508935;28;20245;-42
2023/12/28 15:28:34;;;;;;;6.57;4.80;;;;;;;13.73;45.34;99950.31;10505681;28;20444;-43
2023/12/28 15:33:36;;;;;;;5.73;4.40;;;;;;;13.28;45.74;100019.78;10512875;28;20600;-43
2023/12/28 15:38:38;;;;;;;5.53;3.90;;;;;;;13.20;45.98;99915.94;10507806;28;20231;-42
2023/12/28 15:43:40;;;;;;;4.83;4.33;;;;;;;13.62;45.49;99922.16;10501820;28;20535;-42
2023/12/28 15:48:41;;;;;;;5.33;4.10;;;;;;;13.42;45.11;100001.88;10506750;28;20256;-43
2023/12/28 15:53:43;;;;;;;6.00;4.00;;;;;;;13.74;45.42;99918.88;10500875;28;20231;-42
2023/12/28 15:58:45;;;;;;;5.60;4.70;;;;;;;14.09;44.42;99934.91;10517261;28;20261;-42
2023/12/28 16:03:47;;;;;;;6.80;4.80;;;;;;;14.86;43.54;99911.16;10515610;28;20651;-42
2023/12/28 16:08:49;;;;;;;4.97;3.90;;;;;;;13.52;44.49;100076.81;10525743;28;20304;-43
2023/12/28 16:13:51;;;;;;;5.20;4.03;;;;;;;12.87;45.81;100026.69;10519013;28;20266;-42
2023/12/28 16:18:53;;;;;;;4.80;4.10;;;;;;;12.22;46.97;100043.75;10515981;28;20659;-41
2023/12/28 16:23:55;;;;;;;7.43;4.77;;;;;;;12.61;46.23;100027.25;10519098;28;20439;-42
2023/12/28 16:28:58;;;;;;;4.63;4.23;;;;;;;12.97;45.98;100014.75;10501675;28;20627;-42
2023/12/28 16:34:00;;;;;;;4.57;3.90;;;;;;;13.42;45.38;99978.50;10510449;28;20216;-42
2023/12/28 16:39:07;;;;;;;4.87;4.37;;;;;;;13.46;45.50;99966.34;10524775;28;20473;-42
2023/12/28 16:44:09;;;;;;;5.33;4.83;;;;;;;13.56;44.96;100005.47;10503786;28;20241;-43
2023/12/28 16:49:11;;;;;;;7.70;4.83;;;;;;;13.28;45.11;100039.41;10516005;28;20208;-42
2023/12/28 16:54:13;;;;;;;7.97;5.17;;;;;;;13.31;44.77;100126.88;10518028;28;20707;-42
2023/12/28 16:59:15;;;;;;;5.00;4.23;;;;;;;12.07;48.22;99939.19;10519302;28;20296;-43
2023/12/28 17:04:17;;;;;;;7.03;5.00;;;;;;;12.47;46.74;100012.88;10515236;28;20230;-42
2023/12/28 17:09:19;;;;;;;6.23;4.20;;;;;;;13.71;44.97;99994.59;10515353;28;20244;-42
2023/12/28 17:14:21;;;;;;;5.60;4.43;;;;;;;13.59;45.82;99965.56;10522299;28;20292;-43
2023/12/28 17:19:23;;;;;;;6.60;4.50;;;;;;;13.73;45.50;99938.72;10518326;28;20971;-42
2023/12/28 17:24:29;;;;;;;6.57;4.47;;;;;;;12.16;48.21;100008.63;10516641;28;20234;-42
2023/12/28 17:29:31;;;;;;;5.50;4.70;;;;;;;13.88;46.08;99898.22;10515948;28;20235;-43
2023/12/28 17:34:33;;;;;;;5.33;4.77;;;;;;;12.92;47.75;99862.25;10521298;28;20274;-43
2023/12/28 17:39:38;;;;;;;7.07;5.23;;;;;;;13.18;46.95;99978.97;10519623;28;20207;-41
2023/12/28 17:44:42;;;;;;;7.60;5.97;;;;;;;11.29;50.49;99995.06;10512014;28;20388;-43
2023/12/28 17:49:47;;;;;;;6.17;4.73;;;;;;;11.10;50.40;100017.88;10515600;28;20231;-42
2023/12/28 17:54:50;;;;;;;5.20;4.67;;;;;;;11.60;51.24;99874.28;10518772;28;20784;-43
2023/12/28 17:59:51;;;;;;;8.13;5.57;;;;;;;13.41;47.98;99882.78;10512827;28;20727;-42
2023/12/28 18:04:53;;;;;;;8.07;5.43;;;;;;;12.07;50.56;99834.59;10513972;28;20266;-44
2023/12/28 18:09:56;;;;;;;7.77;5.90;;;;;;;12.08;50.85;99871.94;10512649;28;20284;-41
2023/12/28 18:14:58;;;;;;;6.30;5.70;;;;;;;11.90;50.67;99877.75;10524769;28;20230;-43
2023/12/28 18:19:59;;;;;;;8.33;6.43;;;;;;;11.95;51.56;99816.31;10516339;28;20284;-42
2023/12/28 18:25:03;;;;;;;6.30;5.70;;;;;;;13.01;48.81;99919.31;10523437;28;20715;-42
2023/12/28 18:30:05;;;;;;;6.73;6.03;;;;;;;12.36;50.96;99823.66;10511216;28;20221;-43
2023/12/28 18:35:07;;;;;;;8.17;6.37;;;;;;;13.91;47.21;99887.88;10509960;28;20695;-43
2023/12/28 18:40:10;;;;;;;8.13;6.70;;;;;;;13.15;48.56;99901.44;10513871;28;20231;-42
2023/12/28 18:45:11;;;;;;;8.20;6.87;;;;;;;13.80;47.20;99877.72;10512176;28;20607;-42
2023/12/28 18:50:13;;;;;;;6.53;4.97;;;;;;;11.38;52.28;99841.28;10512614;28;20230;-42
2023/12/28 18:55:15;;;;;;;7.17;6.03;;;;;;;12.74;48.75;100007.78;10516016;28;20238;-43
2023/12/28 19:00:17;;;;;;;4.60;4.10;;;;;;;10.29;53.57;99963.00;10517707;28;20207;-43
2023/12/28 19:05:19;;;;;;;7.13;6.07;;;;;;;12.39;49.56;99934.34;10512983;28;20603;-43
2023/12/28 19:10:21;;;;;;;6.03;5.20;;;;;;;12.30;51.35;99804.81;10494205;28;20203;-42
2023/12/28 19:15:23;;;;;;;6.17;5.30;;;;;;;11.79;51.10;99879.09;10512889;28;20344;-42
2023/12/28 19:20:24;;;;;;;6.37;5.20;;;;;;;10.25;53.62;99926.91;10507890;28;20212;-43
2023/12/28 19:25:26;;;;;;;5.93;5.10;;;;;;;11.69;50.87;99929.47;10523125;28;20262;-42
2023/12/28 19:30:28;;;;;;;6.73;5.60;;;;;;;14.50;46.02;99874.72;10529303;28;20207;-43
2023/12/28 19:35:30;;;;;;;7.73;5.30;;;;;;;11.74;49.85;100015.56;10504128;28;20300;-42
2023/12/28 19:40:31;;;;;;;6.43;4.67;;;;;;;10.88;53.13;99841.91;10507787;28;20234;-43
2023/12/28 19:45:33;;;;;;;7.30;5.33;;;;;;;11.43;50.79;99933.47;10490254;28;20245;-44
2023/12/28 19:50:36;;;;;;;8.07;5.70;;;;;;;12.24;51.18;99802.94;10512616;28;20735;-44
2023/12/28 19:55:38;;;;;;;7.33;6.20;;;;;;;11.39;51.45;99872.41;10512940;28;20244;-44
2023/12/28 20:00:40;;;;;;;6.83;5.20;;;;;;;13.17;48.43;99886.75;10515192;28;20723;-44
2023/12/28 20:05:42;;;;;;;7.00;5.47;;;;;;;12.95;47.84;99960.41;10516350;28;20238;-43
2023/12/28 20:10:44;;;;;;;7.83;5.80;;;;;;;14.03;46.58;99976.91;10514913;28;20242;-44
2023/12/28 20:15:46;;;;;;;7.47;5.77;;;;;;;14.48;46.02;99909.91;10512565;28;20226;-43
2023/12/28 20:20:51;;;;;;;5.30;4.80;;;;;;;12.56;49.04;99903.53;10518633;28;20238;-44
2023/12/28 20:25:52;;;;;;;5.60;5.07;;;;;;;12.26;49.64;99925.13;10518251;28;20244;-44
2023/12/28 20:30:54;;;;;;;6.73;4.70;;;;;;;13.65;47.71;99832.19;10512037;28;20234;-44
2023/12/28 20:35:56;;;;;;;7.60;5.43;;;;;;;11.90;49.15;100008.31;10511025;28;20696;-43
2023/12/28 20:40:57;;;;;;;6.43;4.90;;;;;;;13.37;47.44;99872.63;10510928;28;20314;-43
2023/12/28 20:45:59;;;;;;;5.17;4.53;;;;;;;12.22;48.89;99939.94;10509458;28;20692;-44
2023/12/28 20:51:04;;;;;;;5.20;4.70;;;;;;;12.19;49.28;99925.06;10516125;28;20226;-43
2023/12/28 20:56:06;;;;;;;6.10;4.67;;;;;;;12.97;47.64;99918.06;10511369;28;20341;-44
2023/12/28 21:01:08;;;;;;;6.30;4.93;;;;;;;13.29;46.83;99989.19;10506360;28;20281;-44
2023/12/28 21:06:10;;;;;;;6.27;4.37;;;;;;;12.69;48.31;99911.69;10508827;28;20264;-44
2023/12/28 21:11:13;;;;;;;5.33;3.73;;;;;;;12.37;48.49;99924.63;10503037;28;20211;-44
2023/12/28 21:16:14;;;;;;;4.80;4.30;;;;;;;12.73;48.61;99929.06;10512434;28;20712;-44
2023/12/28 21:21:17;;;;;;;5.07;4.57;;;;;;;14.36;44.95;99949.25;10509053;28;20428;-43
2023/12/28 21:26:19;;;;;;;4.80;4.30;;;;;;;14.34;45.22;99989.84;10514896;28;20326;-43
2023/12/28 21:31:21;;;;;;;4.50;4.10;;;;;;;12.86;47.35;99992.78;10515650;28;20227;-44
2023/12/28 21:36:23;;;;;;;5.20;4.13;;;;;;;13.92;47.02;99851.03;10509518;28;20259;-43
2023/12/28 21:41:25;;;;;;;5.00;4.37;;;;;;;13.31;46.96;99933.38;10506444;28;20259;-43
2023/12/28 21:46:26;;;;;;;6.07;4.57;;;;;;;14.94;44.48;99884.00;10512609;28;20312;-44
2023/12/28 21:51:28;;;;;;;6.97;4.87;;;;;;;13.71;45.86;100003.47;10517900;28;20609;-43
2023/12/28 21:56:30;;;;;;;5.23;4.70;;;;;;;13.39;47.05;99886.69;10509936;28;20238;-44
2023/12/28 22:01:32;;;;;;;6.20;4.87;;;;;;;14.69;45.42;99846.91;10511594;28;20704;-43
2023/12/28 22:06:34;;;;;;;6.43;5.50;;;;;;;13.65;47.21;99859.09;10513470;28;20235;-44
2023/12/28 22:11:35;;;;;;;5.90;4.77;;;;;;;13.47;46.24;99988.69;10516332;28;20234;-44
2023/12/28 22:16:37;;;;;;;5.63;5.10;;;;;;;13.48;46.32;99988.47;10509910;28;20684;-44
2023/12/28 22:21:39;;;;;;;7.50;5.70;;;;;;;14.42;45.59;99883.81;10509672;28;20275;-44
2023/12/28 22:26:42;;;;;;;5.60;4.90;;;;;;;14.83;44.99;99900.78;10506461;28;20660;-44
2023/12/28 22:31:46;;;;;;;5.53;5.03;;;;;;;13.63;46.07;99972.22;10488284;28;20310;-44
2023/12/28 22:36:48;;;;;;;6.00;5.13;;;;;;;11.22;48.71;100084.22;10503271;28;20233;-42
2023/12/28 22:41:51;;;;;;;5.70;5.10;;;;;;;12.34;48.91;99985.88;10487146;28;20226;-43
2023/12/28 22:46:53;;;;;;;6.40;4.60;;;;;;;12.13;48.52;99938.41;10503104;28;20230;-44
2023/12/28 22:51:56;;;;;;;6.57;4.90;;;;;;;14.29;45.49;99910.72;10507894;28;20330;-44
2023/12/28 22:56:58;;;;;;;6.73;5.30;;;;;;;14.66;45.63;99833.88;10502227;28;20287;-43
2023/12/28 23:02:00;;;;;;;5.60;5.03;;;;;;;13.25;46.89;99937.66;10514501;28;20237;-44
2023/12/28 23:07:02;;;;;;;6.37;5.63;;;;;;;14.83;44.85;99866.63;10492201;28;20231;-43
2023/12/28 23:12:04;;;;;;;7.20;5.17;;;;;;;14.40;45.09;99921.72;10505172;28;20600;-44
2023/12/28 23:17:05;;;;;;;7.93;5.97;;;;;;;13.74;46.25;99914.31;10507232;28;20239;-44
2023/12/28 23:22:07;;;;;;;7.20;5.30;;;;;;;14.42;45.44;99853.38;10509196;28;20242;-43
2023/12/28 23:27:09;;;;;;;6.30;5.70;;;;;;;12.82;47.31;99994.22;10508751;28;20233;-44
2023/12/28 23:32:11;;;;;;;6.70;6.00;;;;;;;14.35;45.47;99886.50;10506752;28;20253;-44